createdAt,value
2022-08-09T00:01:54.352Z,97390.44
2022-08-09T00:04:34.111Z,97388.47
2022-08-09T00:07:07.655Z,97393.75
2022-08-09T00:09:40.405Z,97397.53
2022-08-09T00:12:22.525Z,97396.56
2022-08-09T00:14:56.627Z,97398.22
2022-08-09T00:18:05.698Z,97400.47
2022-08-09T00:20:15.865Z,97400.47
2022-08-09T00:22:47.264Z,97393.09
2022-08-09T00:25:23.410Z,97399.75
2022-08-09T00:28:01.210Z,97405.34
2022-08-09T00:30:33.473Z,97410.47
2022-08-09T00:33:02.590Z,97408.66
2022-08-09T00:35:42.954Z,97400.56
2022-08-09T00:38:17.234Z,97408.88
2022-08-09T00:40:52.521Z,97414.63
2022-08-09T00:44:10.126Z,97414.00
2022-08-09T00:46:28.456Z,97415.69
2022-08-09T00:49:01.891Z,97414.00
2022-08-09T00:51:33.855Z,97414.84
2022-08-09T00:54:03.165Z,97419.03
2022-08-09T00:56:32.041Z,97428.53
2022-08-09T00:59:00.875Z,97430.25
2022-08-09T01:01:44.640Z,97432.09
2022-08-09T01:04:20.277Z,97434.72
2022-08-09T01:07:18.144Z,97438.13
2022-08-09T01:10:07.536Z,97433.66
2022-08-09T01:12:45.900Z,97437.81
2022-08-09T01:15:20.878Z,97442.44
2022-08-09T01:18:14.197Z,97446.28
2022-08-09T01:21:20.834Z,97454.03
2022-08-09T01:24:19.969Z,97448.94
2022-08-09T01:27:10.005Z,97448.25
2022-08-09T01:30:06.509Z,97449.00
2022-08-09T01:32:45.430Z,97456.72
2022-08-09T01:35:37.322Z,97452.13
2022-08-09T01:38:20.839Z,97460.38
2022-08-09T01:41:05.217Z,97465.28
2022-08-09T01:43:50.577Z,97466.97
2022-08-09T01:46:29.252Z,97469.09
2022-08-09T01:49:09.644Z,97475.78
2022-08-09T01:51:53.148Z,97472.66
2022-08-09T01:54:55.154Z,97478.16
2022-08-09T01:57:40.381Z,97482.41
2022-08-09T02:00:35.039Z,97485.06
2022-08-09T02:03:13.621Z,97479.16
2022-08-09T02:06:03.402Z,97482.84
2022-08-09T02:08:57.160Z,97482.84
2022-08-09T02:11:40.259Z,97483.50
2022-08-09T02:14:25.164Z,97482.38
2022-08-09T02:17:14.692Z,97481.56
2022-08-09T02:19:45.776Z,97495.81
2022-08-09T02:23:03.289Z,97500.50
2022-08-09T02:25:42.402Z,97503.66
2022-08-09T02:28:28.691Z,97503.13
2022-08-09T02:31:12.533Z,97506.50
2022-08-09T02:34:07.252Z,97506.34
2022-08-09T02:36:36.323Z,97512.94
2022-08-09T02:39:14.348Z,97520.16
2022-08-09T02:41:55.022Z,97515.44
2022-08-09T02:44:30.355Z,97522.59
2022-08-09T02:47:05.165Z,97522.56
2022-08-09T02:50:01.974Z,97529.47
2022-08-09T02:52:44.073Z,97527.34
2022-08-09T02:55:20.718Z,97530.25
2022-08-09T02:58:00.287Z,97531.69
2022-08-09T03:00:57.751Z,97529.22
2022-08-09T03:04:13.273Z,97534.97
2022-08-09T03:06:19.870Z,97540.19
2022-08-09T03:08:52.920Z,97536.97
2022-08-09T03:12:06.472Z,97545.03
2022-08-09T03:14:14.662Z,97537.78
2022-08-09T03:16:48.278Z,97540.72
2022-08-09T03:19:58.790Z,97539.53
2022-08-09T03:22:19.789Z,97541.81
2022-08-09T03:25:05.830Z,97540.53
2022-08-09T03:27:46.557Z,97541.50
2022-08-09T03:30:23.648Z,97545.41
2022-08-09T03:33:01.049Z,97541.56
2022-08-09T03:36:13.715Z,97553.59
2022-08-09T03:38:28.996Z,97554.25
2022-08-09T03:40:59.475Z,97549.00
2022-08-09T03:43:31.558Z,97551.81
2022-08-09T03:46:20.712Z,97554.78
2022-08-09T03:48:58.528Z,97557.97
2022-08-09T03:51:56.332Z,97545.34
2022-08-09T03:54:29.539Z,97546.94
2022-08-09T03:57:04.525Z,97541.81
2022-08-09T03:59:54.567Z,97550.72
2022-08-09T04:02:28.301Z,97548.28
2022-08-09T04:05:00.781Z,97556.44
2022-08-09T04:07:47.010Z,97546.41
2022-08-09T04:10:29.239Z,97549.63
2022-08-09T04:13:03.926Z,97559.78
2022-08-09T04:15:52.555Z,97559.53
2022-08-09T04:18:24.895Z,97555.88
2022-08-09T04:20:54.943Z,97555.28
2022-08-09T04:23:25.019Z,97553.78
2022-08-09T04:25:56.207Z,97546.03
2022-08-09T04:28:33.526Z,97544.66
2022-08-09T04:31:08.605Z,97541.16
2022-08-09T04:33:52.865Z,97547.19
2022-08-09T04:36:28.550Z,97543.03
2022-08-09T04:39:00.609Z,97536.69
2022-08-09T04:41:32.137Z,97540.53
2022-08-09T04:44:10.956Z,97543.47
2022-08-09T04:46:59.120Z,97542.44
2022-08-09T04:49:53.049Z,97551.38
2022-08-09T04:52:28.744Z,97562.25
2022-08-09T04:55:02.386Z,97557.25
2022-08-09T04:57:59.242Z,97553.25
2022-08-09T05:00:23.394Z,97556.06
2022-08-09T05:02:53.052Z,97552.50
2022-08-09T05:05:31.934Z,97548.53
2022-08-09T05:08:13.947Z,97557.53
2022-08-09T05:10:44.419Z,97544.41
2022-08-09T05:13:14.245Z,97540.16
2022-08-09T05:15:48.183Z,97532.31
2022-08-09T05:18:38.121Z,97538.91
2022-08-09T05:21:20.804Z,97541.16
2022-08-09T05:23:59.820Z,97534.84
2022-08-09T05:26:33.851Z,97545.41
2022-08-09T05:29:22.233Z,97545.28
2022-08-09T05:31:56.098Z,97548.13
2022-08-09T05:34:30.955Z,97535.72
2022-08-09T05:37:06.503Z,97531.06
2022-08-09T05:39:43.174Z,97518.19
2022-08-09T05:42:17.661Z,97512.22
2022-08-09T05:44:53.132Z,97510.22
2022-08-09T05:47:27.021Z,97504.47
2022-08-09T05:50:25.804Z,97504.13
2022-08-09T05:52:53.628Z,97491.34
2022-08-09T05:55:24.555Z,97485.56
2022-08-09T05:57:57.604Z,97495.78
2022-08-09T06:00:29.965Z,97502.63
2022-08-09T06:03:00.284Z,97503.13
2022-08-09T06:05:57.713Z,97503.59
2022-08-09T06:08:24.271Z,97506.69
2022-08-09T06:10:58.282Z,97504.91
2022-08-09T06:13:34.061Z,97506.44
2022-08-09T06:16:05.314Z,97505.53
2022-08-09T06:18:35.156Z,97505.94
2022-08-09T06:49:29.173Z,97444.13
2022-08-09T06:52:08.881Z,97442.19
2022-08-09T06:54:38.284Z,97448.63
2022-08-09T06:57:08.511Z,97451.53
2022-08-09T07:00:51.633Z,97450.97
2022-08-09T07:02:29.461Z,97444.13
2022-08-09T07:05:02.472Z,97448.63
2022-08-09T07:07:58.900Z,97446.25
2022-08-09T07:10:31.207Z,97434.97
2022-08-09T07:13:18.698Z,97428.16
2022-08-09T07:15:53.870Z,97422.09
2022-08-09T07:18:41.878Z,97420.28
2022-08-09T07:21:12.722Z,97401.72
2022-08-09T07:23:56.342Z,97399.31
2022-08-09T07:26:27.542Z,97400.03
2022-08-09T07:29:09.349Z,97405.41
2022-08-09T07:31:45.823Z,97392.97
2022-08-09T07:34:20.852Z,97383.81
2022-08-09T07:36:52.889Z,97392.00
2022-08-09T07:39:40.278Z,97410.03
2022-08-09T07:42:12.409Z,97412.34
2022-08-09T07:44:51.779Z,97420.78
2022-08-09T07:47:26.502Z,97426.41
2022-08-09T07:50:07.567Z,97439.03
2022-08-09T07:52:39.559Z,97422.69
2022-08-09T07:55:12.848Z,97417.06
2022-08-09T07:57:46.926Z,97410.34
2022-08-09T08:00:35.695Z,97412.53
2022-08-09T08:03:08.302Z,97411.41
2022-08-09T08:05:57.652Z,97415.91
2022-08-09T08:08:59.714Z,97421.91
2022-08-09T08:12:24.746Z,97410.47
2022-08-09T08:14:08.856Z,97411.94
2022-08-09T08:16:39.619Z,97412.91
2022-08-09T08:19:20.374Z,97433.63
2022-08-09T08:21:53.437Z,97445.69
2022-08-09T08:24:22.970Z,97456.84
2022-08-09T08:26:56.225Z,97452.16
2022-08-09T08:29:28.611Z,97451.53
2022-08-09T08:32:09.412Z,97431.78
2022-08-09T08:34:42.330Z,97429.38
2022-08-09T08:37:15.574Z,97424.06
2022-08-09T08:39:45.774Z,97402.94
2022-08-09T08:42:16.761Z,97401.03
2022-08-09T08:44:46.660Z,97401.03
2022-08-09T08:47:17.087Z,97403.56
2022-08-09T08:49:49.459Z,97395.19
2022-08-09T08:55:15.161Z,97406.13
2022-08-09T08:57:56.586Z,97412.63
2022-08-09T09:00:35.013Z,97407.00
2022-08-09T09:03:11.198Z,97407.31
2022-08-09T09:05:58.346Z,97399.50
2022-08-09T09:08:37.882Z,97392.59
2022-08-09T09:11:13.920Z,97379.59
2022-08-09T09:13:57.301Z,97361.81
2022-08-09T09:16:32.604Z,97359.16
2022-08-09T09:19:37.389Z,97335.72
2022-08-09T09:22:11.466Z,97318.53
2022-08-09T09:24:49.292Z,97318.69
2022-08-09T09:28:04.011Z,97326.63
2022-08-09T09:33:15.283Z,97344.22
2022-08-09T09:36:11.619Z,97329.44
2022-08-09T09:38:52.306Z,97323.72
2022-08-09T09:41:33.125Z,97317.25
2022-08-09T09:44:11.023Z,97309.28
2022-08-09T09:46:52.281Z,97297.72
2022-08-09T09:49:56.462Z,97281.34
2022-08-09T09:52:16.320Z,97265.97
2022-08-09T09:55:24.047Z,97262.22
2022-08-09T09:58:16.664Z,97257.91
2022-08-09T10:00:59.629Z,97250.50
2022-08-09T10:03:57.368Z,97247.13
2022-08-09T10:06:32.659Z,97229.94
2022-08-09T10:09:11.839Z,97234.25
2022-08-09T10:12:15.023Z,97245.56
2022-08-09T10:14:54.246Z,97266.78
2022-08-09T10:17:39.973Z,97274.78
2022-08-09T10:20:27.287Z,97266.69
2022-08-09T10:23:17.436Z,97270.13
2022-08-09T10:26:06.553Z,97274.56
2022-08-09T10:28:40.321Z,97277.38
2022-08-09T10:34:08.149Z,97283.09
2022-08-09T10:36:42.421Z,97278.75
2022-08-09T10:39:18.268Z,97275.13
2022-08-09T10:41:49.594Z,97278.22
2022-08-09T10:44:23.021Z,97282.28
2022-08-09T10:47:20.394Z,97286.25
2022-08-09T10:51:04.804Z,97280.03
2022-08-09T10:54:10.016Z,97280.44
2022-08-09T10:56:44.867Z,97296.09
2022-08-09T10:59:55.488Z,97297.31
2022-08-09T11:03:10.880Z,97294.47
2022-08-09T11:05:32.007Z,97299.81
2022-08-09T11:08:47.939Z,97305.06
2022-08-09T11:11:22.000Z,97305.53
2022-08-09T11:14:46.538Z,97297.81
2022-08-09T11:17:41.716Z,97294.38
2022-08-09T11:20:22.668Z,97280.97
2022-08-09T11:22:55.499Z,97287.00
2022-08-09T11:25:44.594Z,97280.84
2022-08-09T11:28:38.776Z,97272.69
2022-08-09T11:31:50.106Z,97277.66
2022-08-09T11:34:44.299Z,97274.06
2022-08-09T11:37:40.585Z,97273.69
2022-08-09T11:40:17.878Z,97275.41
2022-08-09T11:42:53.862Z,97275.13
2022-08-09T11:45:42.384Z,97276.47
2022-08-09T11:48:28.881Z,97270.75
2022-08-09T11:52:57.091Z,97276.66
2022-08-09T11:53:58.623Z,97280.69
2022-08-09T11:56:42.832Z,97278.84
2022-08-09T11:59:30.650Z,97272.41
2022-08-09T12:02:34.126Z,97271.22
2022-08-09T12:04:58.207Z,97275.06
2022-08-09T12:07:41.421Z,97275.03
2022-08-09T12:10:14.083Z,97266.84
2022-08-09T12:13:03.427Z,97262.78
2022-08-09T12:15:50.084Z,97263.63
2022-08-09T12:18:29.740Z,97267.41
2022-08-09T12:21:02.750Z,97271.06
2022-08-09T12:23:56.428Z,97271.03
2022-08-09T12:26:26.607Z,97279.31
2022-08-09T12:29:13.080Z,97280.97
2022-08-09T12:32:01.649Z,97278.84
2022-08-09T12:34:43.504Z,97275.38
2022-08-09T12:37:23.777Z,97272.06
2022-08-09T12:40:07.894Z,97278.00
2022-08-09T12:42:44.070Z,97275.50
2022-08-09T12:45:34.440Z,97259.66
2022-08-09T12:48:05.664Z,97270.00
2022-08-09T12:50:38.687Z,97262.69
2022-08-09T12:53:37.034Z,97259.97
2022-08-09T12:56:36.893Z,97263.31
2022-08-09T12:59:21.460Z,97263.03
2022-08-09T13:02:00.311Z,97255.19
2022-08-09T13:04:36.442Z,97250.41
2022-08-09T13:07:15.259Z,97241.34
2022-08-09T13:09:55.951Z,97238.78
2022-08-09T13:12:32.329Z,97233.88
2022-08-09T13:15:09.768Z,97229.03
2022-08-09T13:18:03.567Z,97225.16
2022-08-09T13:21:03.983Z,97228.53
2022-08-09T13:24:06.936Z,97227.78
2022-08-09T13:26:40.864Z,97226.06
2022-08-09T13:29:18.077Z,97215.78
2022-08-09T13:32:16.784Z,97220.31
2022-08-09T13:34:49.415Z,97210.88
2022-08-09T13:37:50.501Z,97209.88
2022-08-09T13:41:46.764Z,97220.63
2022-08-09T13:43:05.213Z,97213.31
2022-08-09T13:46:42.349Z,97200.63
2022-08-09T13:48:30.051Z,97198.94
2022-08-09T13:50:59.817Z,97200.41
2022-08-09T13:53:43.500Z,97197.06
2022-08-09T13:56:14.091Z,97185.97
2022-08-09T13:58:43.723Z,97188.50
2022-08-09T14:01:56.443Z,97181.19
2022-08-09T14:04:11.137Z,97182.03
2022-08-09T14:06:41.426Z,97192.69
2022-08-09T14:09:16.439Z,97194.94
2022-08-09T14:11:47.804Z,97182.88
2022-08-09T14:14:26.098Z,97178.25
2022-08-09T14:16:57.810Z,97187.84
2022-08-09T14:19:30.260Z,97185.81
2022-08-09T14:22:03.383Z,97187.59
2022-08-09T14:24:33.727Z,97185.50
2022-08-09T14:27:03.460Z,97187.13
2022-08-09T14:30:35.527Z,97190.09
2022-08-09T14:32:39.720Z,97189.25
2022-08-09T14:35:12.820Z,97190.19
2022-08-09T14:38:02.688Z,97186.69
2022-08-09T14:41:01.753Z,97171.97
2022-08-09T14:43:24.752Z,97172.81
2022-08-09T14:46:55.000Z,97174.31
2022-08-09T14:49:04.907Z,97172.91
2022-08-09T14:51:42.398Z,97162.38
2022-08-09T14:54:14.942Z,97163.00
2022-08-09T14:56:58.979Z,97171.19
2022-08-09T14:59:29.653Z,97162.41
2022-08-09T15:02:00.413Z,97165.66
2022-08-09T15:04:29.947Z,97170.22
2022-08-09T15:07:00.068Z,97166.88
2022-08-09T15:10:03.417Z,97173.66
2022-08-09T15:12:21.695Z,97177.44
2022-08-09T15:14:52.867Z,97188.84
2022-08-09T15:17:22.346Z,97188.28
2022-08-09T15:20:02.321Z,97189.13
2022-08-09T15:22:33.218Z,97187.19
2022-08-09T15:25:04.078Z,97187.38
2022-08-09T15:27:47.836Z,97186.34
2022-08-09T15:30:48.348Z,97182.88
2022-08-09T15:33:15.213Z,97179.06
2022-08-09T15:36:02.007Z,97178.56
2022-08-09T15:38:32.109Z,97175.28
2022-08-09T15:41:09.659Z,97181.13
2022-08-09T15:43:43.235Z,97193.44
2022-08-09T15:46:32.176Z,97200.53
2022-08-09T15:49:22.196Z,97198.66
2022-08-09T15:52:03.422Z,97217.69
2022-08-09T15:54:49.073Z,97213.06
2022-08-09T15:57:35.502Z,97221.88
2022-08-09T16:00:24.675Z,97222.94
2022-08-09T16:02:57.218Z,97234.88
2022-08-09T16:05:47.313Z,97231.63
2022-08-09T16:08:29.829Z,97228.69
2022-08-09T16:11:02.825Z,97244.31
2022-08-09T16:14:03.621Z,97251.34
2022-08-09T16:16:26.288Z,97257.69
2022-08-09T16:18:58.002Z,97259.94
2022-08-09T16:21:31.763Z,97252.91
2022-08-09T16:24:20.057Z,97261.50
2022-08-09T16:26:56.715Z,97255.50
2022-08-09T16:29:36.939Z,97264.63
2022-08-09T16:32:18.082Z,97271.00
2022-08-09T16:34:56.433Z,97262.28
2022-08-09T16:37:55.990Z,97261.28
2022-08-09T16:40:29.931Z,97254.38
2022-08-09T16:43:09.017Z,97256.50
2022-08-09T16:45:44.036Z,97259.19
2022-08-09T16:48:39.216Z,97263.84
2022-08-09T16:51:08.374Z,97267.19
2022-08-09T16:54:25.227Z,97258.56
2022-08-09T16:56:49.272Z,97255.69
2022-08-09T16:59:19.634Z,97248.47
2022-08-09T17:01:52.836Z,97245.69
2022-08-09T17:04:28.202Z,97249.97
2022-08-09T17:08:45.640Z,97246.72
2022-08-09T17:09:51.349Z,97254.94
2022-08-09T17:12:20.680Z,97257.66
2022-08-09T17:14:54.897Z,97268.69
2022-08-09T17:17:28.434Z,97270.44
2022-08-09T17:20:28.415Z,97279.38
2022-08-09T17:22:53.221Z,97272.13
2022-08-09T17:25:23.870Z,97278.91
2022-08-09T17:27:56.034Z,97290.78
2022-08-09T17:30:30.688Z,97297.22
2022-08-09T17:33:22.042Z,97294.06
2022-08-09T17:35:52.887Z,97278.78
2022-08-09T17:38:30.914Z,97277.19
2022-08-09T17:41:04.336Z,97286.50
2022-08-09T17:43:37.451Z,97292.16
2022-08-09T17:46:09.762Z,97289.31
2022-08-09T17:48:46.610Z,97296.03
2022-08-09T17:51:23.307Z,97307.03
2022-08-09T17:53:55.891Z,97302.19
2022-08-09T17:56:35.409Z,97299.13
2022-08-09T17:59:09.527Z,97310.88
2022-08-09T18:02:06.419Z,97306.44
2022-08-09T18:04:34.003Z,97308.19
2022-08-09T18:07:07.846Z,97308.63
2022-08-09T18:09:41.864Z,97314.31
2022-08-09T18:12:19.984Z,97308.06
2022-08-09T18:14:56.662Z,97299.59
2022-08-09T18:18:02.628Z,97304.31
2022-08-09T18:20:59.056Z,97313.06
2022-08-09T18:23:14.150Z,97308.78
2022-08-09T18:25:58.686Z,97305.28
2022-08-09T18:30:35.164Z,97312.81
2022-08-09T18:31:25.009Z,97309.19
2022-08-09T18:34:11.077Z,97316.28
2022-08-09T18:36:40.930Z,97313.22
2022-08-09T18:39:16.991Z,97317.28
2022-08-09T18:41:53.091Z,97314.72
2022-08-09T18:44:26.009Z,97310.69
2022-08-09T18:47:06.318Z,97296.41
2022-08-09T18:49:46.186Z,97301.09
2022-08-09T18:52:28.670Z,97295.28
2022-08-09T18:55:06.260Z,97298.34
2022-08-09T18:57:44.839Z,97295.69
2022-08-09T19:00:19.976Z,97300.00
2022-08-09T19:02:54.075Z,97292.47
2022-08-09T19:05:48.701Z,97296.78
2022-08-09T19:08:18.570Z,97298.16
2022-08-09T19:10:50.764Z,97297.31
2022-08-09T19:13:38.263Z,97294.13
2022-08-09T19:16:21.018Z,97293.84
2022-08-09T19:18:51.045Z,97296.69
2022-08-09T19:21:47.890Z,97293.50
2022-08-09T19:24:39.489Z,97301.16
2022-08-09T19:27:01.319Z,97293.59
2022-08-09T19:29:30.778Z,97297.22
2022-08-09T19:32:20.280Z,97287.53
2022-08-09T19:34:53.984Z,97290.88
2022-08-09T19:37:23.561Z,97281.97
2022-08-09T19:40:05.084Z,97280.53
2022-08-09T19:42:35.790Z,97282.59
2022-08-09T19:45:09.376Z,97278.88
2022-08-09T19:47:39.326Z,97274.13
2022-08-09T19:50:51.324Z,97275.44
2022-08-09T19:52:59.065Z,97265.16
2022-08-09T19:55:39.102Z,97255.00
2022-08-09T19:58:29.614Z,97246.09
2022-08-09T20:01:00.249Z,97241.91
2022-08-09T20:04:11.081Z,97245.97
2022-08-09T20:06:23.241Z,97247.19
2022-08-09T20:08:56.899Z,97241.25
2022-08-09T20:11:43.409Z,97237.06
2022-08-09T20:14:18.034Z,97233.88
2022-08-09T20:16:48.994Z,97240.28
2022-08-09T20:19:47.595Z,97239.31
2022-08-09T20:22:10.216Z,97242.91
2022-08-09T20:24:53.233Z,97248.75
2022-08-09T20:27:24.185Z,97252.25
2022-08-09T20:30:00.117Z,97246.09
2022-08-09T20:32:33.651Z,97246.69
2022-08-09T20:35:04.038Z,97243.63
2022-08-09T20:38:19.578Z,97255.28
2022-08-09T20:40:27.898Z,97253.38
2022-08-09T20:43:00.329Z,97249.19
2022-08-09T20:46:00.316Z,97239.72
2022-08-09T20:48:39.890Z,97236.41
2022-08-09T20:51:19.133Z,97239.72
2022-08-09T20:53:49.213Z,97241.00
2022-08-09T20:56:20.677Z,97242.53
2022-08-09T20:58:57.854Z,97247.22
2022-08-09T21:01:35.222Z,97245.44
2022-08-09T21:05:51.412Z,97251.00
2022-08-09T21:07:14.011Z,97247.22
2022-08-09T21:09:56.836Z,97246.09
2022-08-09T21:15:23.859Z,97248.91
2022-08-09T21:18:22.454Z,97238.47
2022-08-09T21:20:56.030Z,97237.25
2022-08-09T21:23:51.377Z,97235.72
2022-08-09T21:26:16.564Z,97241.69
2022-08-09T21:28:55.619Z,97240.03
2022-08-09T21:31:48.828Z,97234.31
2022-08-09T21:34:20.969Z,97233.34
2022-08-09T21:36:58.762Z,97236.31
2022-08-09T21:39:41.732Z,97237.41
2022-08-09T21:42:15.247Z,97234.47
2022-08-09T21:44:45.399Z,97235.91
2022-08-09T21:47:18.058Z,97231.00
2022-08-09T21:49:49.128Z,97232.94
2022-08-09T21:52:20.941Z,97239.75
2022-08-09T21:55:03.534Z,97235.75
2022-08-09T21:57:59.504Z,97227.00
2022-08-09T22:00:32.304Z,97224.75
2022-08-09T22:03:06.607Z,97227.00
2022-08-09T22:05:42.451Z,97225.03
2022-08-09T22:08:17.424Z,97223.06
2022-08-09T22:11:50.025Z,97222.69
2022-08-09T22:13:43.278Z,97217.81
2022-08-09T22:16:13.552Z,97219.22
2022-08-09T22:18:54.356Z,97218.25
2022-08-09T22:21:45.407Z,97219.16
2022-08-09T22:24:24.045Z,97220.00
2022-08-09T22:26:55.706Z,97223.84
2022-08-09T22:29:38.520Z,97228.63
2022-08-09T22:32:29.743Z,97216.97
2022-08-09T22:35:05.837Z,97220.47
2022-08-09T22:37:40.526Z,97220.38
2022-08-09T22:40:19.932Z,97210.34
2022-08-09T22:42:50.339Z,97212.28
2022-08-09T22:48:15.375Z,97218.69
2022-08-09T22:48:19.810Z,97215.34
2022-08-09T22:50:59.561Z,97222.13
2022-08-09T22:53:44.201Z,97222.53
2022-08-09T22:56:33.766Z,97208.25
2022-08-09T22:59:05.958Z,97223.41
2022-08-09T23:01:55.290Z,97222.19
2022-08-09T23:04:25.725Z,97227.75
2022-08-09T23:07:16.318Z,97230.38
2022-08-09T23:09:46.292Z,97232.28
2022-08-09T23:12:16.162Z,97236.50
2022-08-09T23:14:45.853Z,97217.59
2022-08-09T23:17:16.292Z,97229.38
2022-08-09T23:20:00.654Z,97223.13
2022-08-09T23:22:37.113Z,97222.88
2022-08-09T23:25:07.970Z,97218.38
2022-08-09T23:27:37.336Z,97214.78
2022-08-09T23:30:26.951Z,97214.13
2022-08-09T23:32:56.683Z,97217.63
2022-08-09T23:35:26.320Z,97220.94
2022-08-09T23:37:55.772Z,97229.00
2022-08-09T23:40:25.366Z,97227.88
2022-08-09T23:42:54.905Z,97223.69
2022-08-09T23:45:36.829Z,97220.91
2022-08-09T23:48:09.101Z,97216.38
2022-08-09T23:50:38.927Z,97221.47
2022-08-09T23:53:10.378Z,97217.91
2022-08-09T23:55:48.360Z,97229.53
2022-08-09T23:58:27.706Z,97225.94
